Time;durP1;ratioP1;P1;durP2;ratioP2;P2;SDS_P1;SDS_P2;PMS_P1;PMS_P2;Temp;Humidity;BMP_temperature;BMP_pressure;BME280_temperature;BME280_humidity;BME280_pressure;Samples;Min_cycle;Max_cycle;Signal;HPM_P1;HPM_P2
2022/03/18 00:01:48;;;;;;;42.27;19.73;;;;;;;2.24;54.98;102107.39;2162741;81;21490;-80
2022/03/18 00:04:50;;;;;;;44.20;19.95;;;;;;;2.22;55.01;102115.76;2156254;81;21581;-82
2022/03/18 00:07:53;;;;;;;39.60;20.92;;;;;;;2.19;55.09;102112.80;2159375;81;22062;-81
2022/03/18 00:10:55;;;;;;;36.38;19.07;;;;;;;2.16;55.19;102116.02;2154193;81;21450;-79
2022/03/18 00:13:58;;;;;;;38.00;19.23;;;;;;;2.15;55.18;102108.63;2158069;80;20959;-81
2022/03/18 00:16:59;;;;;;;43.75;20.43;;;;;;;2.13;55.38;102126.62;2150741;80;21082;-82
2022/03/18 00:20:00;;;;;;;;;;;;;;;2.09;55.39;102125.91;2161910;81;21040;-81
2022/03/18 00:23:01;;;;;;;38.02;20.45;;;;;;;2.07;55.45;102124.27;2154035;81;20130;-82
2022/03/18 00:26:02;;;;;;;41.60;20.05;;;;;;;2.05;55.44;102124.31;2160078;80;21477;-82
2022/03/18 00:29:03;;;;;;;42.98;20.65;;;;;;;2.02;55.70;102139.69;2157527;81;21333;-81
2022/03/18 00:32:07;;;;;;;37.08;18.48;;;;;;;1.99;55.61;102135.89;2156012;81;21021;-79
2022/03/18 00:35:10;;;;;;;46.05;21.30;;;;;;;1.98;55.68;102144.67;2151223;81;21005;-80
2022/03/18 00:38:11;;;;;;;37.75;18.42;;;;;;;1.95;55.68;102141.33;2153181;80;20974;-81
2022/03/18 00:41:13;;;;;;;38.13;19.55;;;;;;;1.93;55.75;102145.30;2162372;80;21450;-82
2022/03/18 00:44:14;;;;;;;38.67;21.05;;;;;;;1.91;55.79;102138.42;2148331;80;21444;-81
2022/03/18 00:53:55;;;;;;;43.23;20.80;;;;;;;1.86;55.78;102134.70;2143616;81;21064;-82
2022/03/18 00:56:56;;;;;;;37.70;20.20;;;;;;;1.84;55.82;102135.67;2153055;81;21572;-80
2022/03/18 00:59:57;;;;;;;42.30;19.52;;;;;;;1.81;55.93;102131.87;2159798;80;21041;-81
2022/03/18 01:02:59;;;;;;;44.35;21.17;;;;;;;1.79;56.03;102135.38;2165744;80;21057;-83
2022/03/18 01:06:00;;;;;;;48.23;24.23;;;;;;;1.77;56.04;102131.12;2160469;80;20970;-80
2022/03/18 01:09:03;;;;;;;56.65;24.43;;;;;;;1.75;56.02;102135.13;2163425;81;21112;-81
2022/03/18 01:12:05;;;;;;;47.17;22.17;;;;;;;1.73;56.01;102138.25;2154252;81;21841;-81
2022/03/18 01:15:08;;;;;;;47.83;22.80;;;;;;;1.74;55.99;102141.71;2157697;81;21091;-81
2022/03/18 01:18:09;;;;;;;49.88;24.92;;;;;;;1.72;55.98;102135.25;2162970;80;21088;-80
2022/03/18 01:21:10;;;;;;;49.70;25.80;;;;;;;1.72;56.00;102144.41;2157575;81;21012;-82
2022/03/18 01:24:11;;;;;;;45.98;24.98;;;;;;;1.69;56.02;102142.34;2159087;81;21040;-79
2022/03/18 01:27:12;;;;;;;50.45;24.27;;;;;;;1.67;56.03;102141.11;2158743;80;21333;-82
2022/03/18 01:30:16;;;;;;;;;;;;;;;1.65;55.98;102141.62;2161388;81;21041;-81
2022/03/18 01:33:17;;;;;;;37.67;20.27;;;;;;;1.64;56.11;102141.70;2161417;80;20132;-81
2022/03/18 01:36:19;;;;;;;44.88;21.70;;;;;;;1.61;56.10;102136.58;2161375;81;21492;-82
2022/03/18 01:39:22;;;;;;;40.75;19.57;;;;;;;1.59;56.15;102144.94;2155945;81;21012;-83
2022/03/18 01:42:23;;;;;;;46.48;22.32;;;;;;;1.57;56.06;102145.83;2160681;81;21009;-81
2022/03/18 01:45:24;;;;;;;;;;;;;;;1.54;56.05;102153.80;2159474;81;21032;-79
2022/03/18 01:48:25;;;;;;;39.45;20.88;;;;;;;1.52;56.00;102155.65;2154759;80;20124;-80
2022/03/18 01:51:26;;;;;;;43.35;21.52;;;;;;;1.50;55.99;102163.16;2158867;81;21461;-80
2022/03/18 01:57:47;;;;;;;46.42;22.50;;;;;;;1.45;55.90;102169.02;2153939;81;20183;-80
2022/03/18 02:00:48;;;;;;;40.25;18.90;;;;;;;1.44;55.91;102166.86;2158258;80;21001;-81
2022/03/18 02:03:49;;;;;;;36.98;19.80;;;;;;;1.44;55.87;102165.55;2159272;81;21591;-79
2022/03/18 02:06:52;;;;;;;41.05;20.25;;;;;;;1.43;55.78;102165.13;2167543;80;21022;-80
2022/03/18 02:09:53;;;;;;;37.80;20.10;;;;;;;1.43;55.80;102168.21;2151675;81;21576;-82
2022/03/18 02:12:54;;;;;;;39.13;20.35;;;;;;;1.42;55.76;102171.28;2150873;81;20998;-79
2022/03/18 02:15:55;;;;;;;38.40;19.40;;;;;;;1.41;55.71;102168.72;2153894;81;20960;-81
2022/03/18 02:18:56;;;;;;;;;;;;;;;1.37;55.65;102173.67;2167352;80;20976;-82
2022/03/18 02:21:58;;;;;;;37.70;19.17;;;;;;;1.31;55.66;102183.45;2156157;81;20132;-81
2022/03/18 02:24:59;;;;;;;36.35;17.25;;;;;;;1.26;55.70;102177.53;2159216;81;21042;-82
2022/03/18 02:28:03;;;;;;;38.50;18.57;;;;;;;1.23;55.77;102180.27;2156971;81;20977;-83
2022/03/18 02:31:04;;;;;;;37.05;18.50;;;;;;;1.18;55.90;102178.27;2156736;81;20993;-82
2022/03/18 02:34:05;;;;;;;37.53;16.67;;;;;;;1.13;55.95;102185.45;2158912;81;21528;-81
2022/03/18 02:37:08;;;;;;;37.48;18.12;;;;;;;1.09;55.93;102192.98;2156587;80;21563;-80
2022/03/18 02:40:10;;;;;;;33.40;17.00;;;;;;;1.03;55.94;102199.29;2160204;81;21598;-80
2022/03/18 02:43:11;;;;;;;36.60;18.12;;;;;;;1.00;56.09;102201.17;2153023;81;21060;-80
2022/03/18 02:46:12;;;;;;;37.78;18.98;;;;;;;0.94;56.17;102202.70;2156183;81;21040;-80
2022/03/18 02:49:13;;;;;;;;;;;;;;;0.91;56.34;102208.88;2160557;81;21056;-79
2022/03/18 02:52:14;;;;;;;35.85;17.82;;;;;;;0.83;56.34;102208.30;2156756;80;20148;-80
2022/03/18 02:55:16;;;;;;;36.93;18.48;;;;;;;0.74;56.40;102202.94;2154921;81;20996;-82
2022/03/18 02:58:17;;;;;;;35.55;16.67;;;;;;;0.72;56.50;102203.43;2133123;82;21029;-79
2022/03/18 03:01:19;;;;;;;41.75;18.45;;;;;;;0.72;56.57;102204.73;2139045;82;21053;-81
2022/03/18 03:04:20;;;;;;;38.50;17.52;;;;;;;0.72;56.49;102211.73;2137833;82;21041;-80
2022/03/18 03:10:43;;;;;;;33.70;15.95;;;;;;;0.66;56.45;102216.70;2146259;82;20164;-80
2022/03/18 03:13:44;;;;;;;41.68;17.92;;;;;;;0.62;56.44;102215.97;2137074;82;21081;-82
2022/03/18 03:16:46;;;;;;;37.75;17.65;;;;;;;0.63;56.47;102212.89;2141936;82;20958;-82
2022/03/18 03:19:48;;;;;;;34.48;17.23;;;;;;;0.64;56.48;102217.20;2137725;82;20961;-81
2022/03/18 03:22:49;;;;;;;37.63;17.15;;;;;;;0.63;56.47;102224.66;2136920;81;21019;-82
2022/03/18 03:25:50;;;;;;;;;;;;;;;0.63;56.42;102225.50;2140102;81;21018;-79
2022/03/18 03:28:51;;;;;;;34.05;16.75;;;;;;;0.59;56.37;102218.69;2137183;81;20153;-81
2022/03/18 03:31:52;;;;;;;36.30;17.67;;;;;;;0.56;56.36;102223.98;2136803;81;20981;-78
2022/03/18 03:34:54;;;;;;;;;;;;;;;0.51;56.32;102229.84;2136993;82;21556;-80
2022/03/18 03:37:55;;;;;;;31.85;15.45;;;;;;;0.46;56.29;102230.89;2135663;82;20176;-82
2022/03/18 03:40:56;;;;;;;32.85;15.80;;;;;;;0.39;56.25;102233.67;2137318;82;21065;-79
2022/03/18 03:43:57;;;;;;;33.35;15.15;;;;;;;0.38;56.28;102240.27;2144626;82;21043;-82
2022/03/18 03:46:59;;;;;;;36.45;15.98;;;;;;;0.37;56.23;102247.72;2135971;82;21053;-81
2022/03/18 03:50:00;;;;;;;32.33;16.20;;;;;;;0.35;56.19;102245.14;2141264;82;21044;-83
2022/03/18 03:53:02;;;;;;;;;;;;;;;0.30;56.19;102248.34;2143138;80;21042;-81
2022/03/18 03:56:04;;;;;;;35.68;15.45;;;;;;;0.22;56.22;102252.50;2135481;82;20167;-81
2022/03/18 03:59:05;;;;;;;30.90;15.18;;;;;;;0.15;56.30;102255.38;2139666;82;21049;-79
2022/03/18 04:02:08;;;;;;;31.87;15.23;;;;;;;0.09;56.27;102266.86;2135758;82;21009;-80
2022/03/18 04:05:10;;;;;;;28.90;14.38;;;;;;;0.07;56.33;102273.02;2140623;82;21079;-82
2022/03/18 04:08:11;;;;;;;39.30;17.07;;;;;;;0.02;56.42;102270.99;2139372;82;21055;-83
2022/03/18 04:11:12;;;;;;;31.68;15.83;;;;;;;-0.06;56.44;102268.61;2132648;82;21076;-80
2022/03/18 04:14:14;;;;;;;30.97;15.58;;;;;;;-0.11;56.45;102260.94;2140820;81;21026;-81
2022/03/18 04:17:15;;;;;;;34.30;15.68;;;;;;;-0.14;56.46;102264.06;2138574;82;21006;-83
2022/03/18 04:20:24;;;;;;;29.65;14.98;;;;;;;-0.17;56.48;102272.86;2138531;82;21471;-82
2022/03/18 04:23:25;;;;;;;32.42;16.23;;;;;;;-0.20;56.59;102272.92;2136187;82;21506;-79
2022/03/18 04:26:26;;;;;;;32.90;15.43;;;;;;;-0.22;56.54;102279.97;2137329;82;21582;-83
2022/03/18 04:29:27;;;;;;;28.62;15.10;;;;;;;-0.25;56.54;102278.75;2135041;82;21020;-79
2022/03/18 04:32:28;;;;;;;32.25;15.50;;;;;;;-0.30;56.56;102274.96;2133911;80;21049;-81
2022/03/18 04:35:31;;;;;;;35.20;16.62;;;;;;;-0.34;56.56;102275.97;2137918;81;20970;-83
2022/03/18 04:38:33;;;;;;;30.97;15.78;;;;;;;-0.36;56.60;102276.91;2138036;82;21033;-81
2022/03/18 04:41:34;;;;;;;25.85;13.72;;;;;;;-0.39;56.60;102284.82;2133438;82;21079;-83
2022/03/18 04:44:35;;;;;;;29.02;15.28;;;;;;;-0.42;56.68;102283.57;2135646;82;21014;-81
2022/03/18 04:47:37;;;;;;;34.65;15.95;;;;;;;-0.46;56.69;102295.40;2136800;80;21036;-82
2022/03/18 04:50:38;;;;;;;31.77;15.95;;;;;;;-0.48;56.67;102301.13;2137453;80;21065;-80
2022/03/18 04:53:40;;;;;;;36.83;16.67;;;;;;;-0.47;56.69;102309.34;2135692;82;21422;-80
2022/03/18 05:00:01;;;;;;;37.90;17.02;;;;;;;-0.52;56.80;102313.83;2116627;82;21066;-80
2022/03/18 05:03:03;;;;;;;30.20;15.13;;;;;;;-0.60;56.85;102321.45;2121249;82;21042;-81
2022/03/18 05:06:05;;;;;;;30.68;15.45;;;;;;;-0.66;57.00;102324.23;2125756;82;21526;-81
2022/03/18 05:09:06;;;;;;;32.25;15.93;;;;;;;-0.72;57.07;102331.77;2123111;82;21057;-82
2022/03/18 05:12:13;;;;;;;31.45;14.80;;;;;;;-0.78;57.20;102333.23;2117555;82;21001;-81
2022/03/18 05:15:14;;;;;;;29.75;16.12;;;;;;;-0.85;57.20;102334.28;2120773;82;20982;-80
2022/03/18 05:18:15;;;;;;;34.25;16.15;;;;;;;-0.91;57.34;102340.05;2118769;82;21556;-80
2022/03/18 05:21:17;;;;;;;32.48;15.20;;;;;;;-0.91;57.42;102341.35;2119734;82;21021;-81
2022/03/18 05:24:18;;;;;;;30.08;16.85;;;;;;;-1.00;57.88;102345.50;2116279;82;20986;-81
2022/03/18 05:27:19;;;;;;;31.23;16.40;;;;;;;-1.07;58.09;102346.98;2128700;82;21614;-78
2022/03/18 05:30:20;;;;;;;;;;;;;;;-1.09;58.33;102344.89;2121138;82;20993;-80
2022/03/18 05:33:21;;;;;;;33.35;17.02;;;;;;;-1.08;58.68;102347.89;2123926;82;20240;-82
2022/03/18 05:36:22;;;;;;;35.98;17.02;;;;;;;-1.11;59.12;102338.39;2117643;82;21025;-79
2022/03/18 05:39:23;;;;;;;36.30;15.25;;;;;;;-1.15;59.68;102341.53;2120171;82;21599;-80
2022/03/18 05:42:26;;;;;;;32.58;16.52;;;;;;;-1.17;59.36;102345.06;2118241;82;21063;-81
2022/03/18 05:45:28;;;;;;;31.00;15.70;;;;;;;-1.18;59.47;102347.27;2123074;82;21054;-79
2022/03/18 05:48:29;;;;;;;33.70;15.03;;;;;;;-1.20;59.55;102356.41;2127161;82;21516;-83
2022/03/18 05:51:31;;;;;;;29.87;15.85;;;;;;;-1.18;59.55;102362.45;2116832;82;21569;-83
2022/03/18 05:54:32;;;;;;;31.15;15.85;;;;;;;-1.15;59.65;102363.67;2121044;82;20986;-80
2022/03/18 05:57:34;;;;;;;30.90;16.27;;;;;;;-1.08;59.69;102364.38;2128816;82;21069;-82
2022/03/18 06:00:35;;;;;;;34.00;16.42;;;;;;;-1.05;59.71;102366.91;2135197;81;21545;-81
2022/03/18 06:03:37;;;;;;;35.70;15.40;;;;;;;-1.00;59.72;102370.71;2137901;82;20978;-84
2022/03/18 06:06:40;;;;;;;30.52;14.80;;;;;;;-0.96;59.79;102374.94;2140795;82;21026;-83
2022/03/18 06:13:01;;;;;;;30.25;15.18;;;;;;;-0.89;59.75;102382.18;2137950;82;21365;-80
2022/03/18 06:16:02;;;;;;;31.48;15.95;;;;;;;-0.85;59.80;102384.66;2139356;82;20992;-85
2022/03/18 06:19:04;;;;;;;30.45;16.02;;;;;;;-0.78;59.74;102391.90;2138708;80;21005;-85
2022/03/18 06:22:07;;;;;;;28.35;14.65;;;;;;;-0.68;59.64;102399.87;2137656;81;21412;-85
2022/03/18 06:25:08;;;;;;;41.80;17.05;;;;;;;-0.64;59.62;102408.05;2139193;82;21003;-83
2022/03/18 06:28:10;;;;;;;44.40;20.48;;;;;;;-0.61;59.71;102402.75;2139211;80;21048;-85
2022/03/18 06:31:12;;;;;;;39.45;18.92;;;;;;;-0.54;59.56;102404.29;2137258;82;21558;-85
2022/03/18 06:34:13;;;;;;;38.10;18.02;;;;;;;-0.41;59.52;102418.34;2142362;82;21287;-84
2022/03/18 06:37:14;;;;;;;30.95;16.10;;;;;;;-0.29;59.47;102418.85;2133411;80;21084;-85
2022/03/18 06:40:15;;;;;;;32.67;16.52;;;;;;;-0.14;59.46;102415.00;2138919;80;21821;-84
2022/03/18 06:43:17;;;;;;;33.02;15.93;;;;;;;0.04;59.31;102417.99;2139602;82;21025;-83
2022/03/18 06:46:19;;;;;;;31.77;15.88;;;;;;;0.22;59.33;102422.67;2139209;82;20966;-84
2022/03/18 06:49:20;;;;;;;29.15;14.90;;;;;;;0.38;59.08;102429.17;2142734;82;21058;-84
2022/03/18 06:52:22;;;;;;;33.53;16.30;;;;;;;0.54;58.67;102433.52;2141342;81;21022;-84
2022/03/18 06:55:23;;;;;;;30.40;15.75;;;;;;;0.65;58.80;102436.66;2142622;80;21538;-85
2022/03/18 06:58:24;;;;;;;33.60;17.45;;;;;;;0.80;58.73;102443.16;2118378;82;21038;-83
2022/03/18 07:01:26;;;;;;;36.75;16.95;;;;;;;1.00;58.35;102441.70;2117952;82;20975;-84
2022/03/18 07:04:27;;;;;;;27.90;14.53;;;;;;;1.21;58.13;102440.14;2110864;82;21011;-84
2022/03/18 07:07:28;;;;;;;30.88;16.02;;;;;;;1.46;57.57;102444.97;2110552;82;21521;-84
2022/03/18 07:10:30;;;;;;;32.30;16.25;;;;;;;1.68;56.82;102456.03;2119283;82;21288;-83
2022/03/18 07:13:31;;;;;;;34.15;16.85;;;;;;;1.81;56.73;102450.78;2111365;82;21025;-84
2022/03/18 07:19:52;;;;;;;34.15;16.75;;;;;;;2.18;55.29;102464.73;2106551;82;20998;-83
2022/03/18 07:23:12;;;;;;;31.25;16.97;;;;;;;2.36;55.68;102467.58;2108081;82;21011;-85
2022/03/18 07:26:13;;;;;;;36.25;19.00;;;;;;;2.58;55.19;102473.73;2110758;82;21537;-85
2022/03/18 07:29:15;;;;;;;36.90;18.02;;;;;;;2.90;54.80;102476.45;2125112;82;20983;-83
2022/03/18 07:32:17;;;;;;;36.93;16.62;;;;;;;3.24;54.21;102480.80;2119458;82;21045;-84
2022/03/18 07:35:19;;;;;;;32.90;17.62;;;;;;;3.69;53.62;102474.57;2115756;82;20981;-85
2022/03/18 07:38:21;;;;;;;33.70;17.75;;;;;;;3.95;51.94;102479.58;2111697;82;21488;-84
2022/03/18 07:41:22;;;;;;;32.70;16.23;;;;;;;4.18;51.77;102489.08;2112991;82;20967;-85
2022/03/18 07:44:23;;;;;;;34.27;16.73;;;;;;;4.27;50.96;102486.51;2113179;82;21033;-84
2022/03/18 07:47:25;;;;;;;33.53;16.85;;;;;;;4.40;49.93;102494.71;2117359;82;20975;-83
2022/03/18 07:50:29;;;;;;;35.60;17.57;;;;;;;4.43;48.02;102486.22;2111891;82;20959;-84
2022/03/18 07:53:30;;;;;;;31.65;16.50;;;;;;;4.58;49.33;102495.18;2119127;82;21002;-84
2022/03/18 07:56:31;;;;;;;30.00;16.77;;;;;;;4.77;48.84;102501.77;2111123;82;21002;-83
2022/03/18 07:59:32;;;;;;;30.50;15.65;;;;;;;4.92;48.54;102515.52;2111898;82;21066;-84
2022/03/18 08:02:34;;;;;;;30.23;15.72;;;;;;;4.91;47.12;102512.50;2114397;82;20998;-83
2022/03/18 08:05:36;;;;;;;29.92;16.55;;;;;;;5.00;46.64;102515.63;2111521;82;20968;-83
2022/03/18 08:08:37;;;;;;;30.50;15.93;;;;;;;4.99;47.28;102513.94;2111371;82;21062;-84
2022/03/18 08:11:40;;;;;;;31.60;17.05;;;;;;;5.27;47.03;102517.42;2115950;82;21524;-83
2022/03/18 08:14:42;;;;;;;33.23;16.85;;;;;;;5.53;46.50;102517.47;2118876;82;21053;-84
2022/03/18 08:17:44;;;;;;;27.70;15.35;;;;;;;5.87;46.62;102511.83;2117663;82;21002;-84
2022/03/18 08:20:51;;;;;;;29.27;17.40;;;;;;;6.22;46.29;102520.58;2109688;82;20990;-84
2022/03/18 08:23:53;;;;;;;31.42;16.07;;;;;;;6.54;46.26;102520.21;2114312;82;20965;-84
2022/03/18 08:26:54;;;;;;;29.45;16.23;;;;;;;6.64;45.35;102521.40;2113303;82;21561;-84
2022/03/18 08:29:59;;;;;;;31.20;17.25;;;;;;;7.01;45.34;102526.47;2117419;82;20999;-84
2022/03/18 08:33:00;;;;;;;29.57;17.07;;;;;;;7.17;43.99;102525.52;2104805;82;21530;-85
2022/03/18 08:36:01;;;;;;;31.40;16.80;;;;;;;6.95;43.21;102531.17;2109865;82;21032;-85
2022/03/18 08:39:03;;;;;;;31.20;17.25;;;;;;;6.94;43.89;102544.44;2108650;82;21034;-84
2022/03/18 08:42:05;;;;;;;32.30;17.42;;;;;;;7.16;43.53;102544.11;2116550;82;21056;-84
2022/03/18 08:45:09;;;;;;;33.13;16.67;;;;;;;7.17;43.50;102546.65;2108326;82;21002;-84
2022/03/18 08:48:10;;;;;;;32.78;17.67;;;;;;;7.18;43.30;102553.66;2082533;82;21033;-84
2022/03/18 08:51:12;;;;;;;29.82;16.95;;;;;;;7.45;43.56;102550.86;2114655;82;21004;-84
2022/03/18 08:54:14;;;;;;;32.88;18.25;;;;;;;7.52;43.49;102557.04;2108701;82;20969;-84
2022/03/18 08:57:16;;;;;;;28.85;17.77;;;;;;;7.86;43.19;102560.38;2122066;82;21646;-84
2022/03/18 09:00:19;;;;;;;37.25;16.15;;;;;;;8.21;42.09;102554.78;2140231;82;21014;-84
2022/03/18 09:03:20;;;;;;;33.05;18.32;;;;;;;8.26;41.45;102561.98;2133004;82;21569;-84
2022/03/18 09:06:22;;;;;;;32.65;18.10;;;;;;;8.05;40.78;102557.03;2141229;82;21413;-84
2022/03/18 09:09:23;;;;;;;29.18;17.15;;;;;;;8.07;42.22;102564.38;2117132;82;21501;-83
2022/03/18 09:12:26;;;;;;;30.35;17.45;;;;;;;8.17;41.88;102561.22;2140526;82;20979;-84
2022/03/18 09:15:29;;;;;;;32.15;17.42;;;;;;;8.07;41.37;102572.31;2136044;82;21541;-84
2022/03/18 09:18:32;;;;;;;30.00;15.48;;;;;;;8.12;41.47;102580.47;2132283;82;21012;-85
2022/03/18 09:21:34;;;;;;;29.67;17.48;;;;;;;8.00;40.64;102580.25;2141535;80;20998;-84
2022/03/18 09:24:38;;;;;;;32.80;17.37;;;;;;;7.87;40.99;102583.22;2135912;82;21035;-84
2022/03/18 09:27:40;;;;;;;35.38;17.42;;;;;;;7.90;41.22;102580.39;2133957;82;21585;-85
2022/03/18 09:30:43;;;;;;;27.32;15.85;;;;;;;7.99;40.84;102581.64;2135661;81;21907;-85
2022/03/18 09:33:46;;;;;;;31.75;16.75;;;;;;;8.20;41.49;102587.48;2137618;81;21518;-85
2022/03/18 09:36:49;;;;;;;30.65;18.57;;;;;;;8.29;40.98;102585.13;2133093;82;21021;-83
2022/03/18 09:39:52;;;;;;;26.82;17.32;;;;;;;8.29;40.44;102590.41;2139495;82;21029;-83
2022/03/18 09:42:59;;;;;;;26.85;15.63;;;;;;;8.14;39.39;102600.59;2142993;82;21700;-84
2022/03/18 09:46:08;;;;;;;32.20;17.75;;;;;;;8.24;39.82;102603.53;2137356;81;21053;-84
2022/03/18 09:49:14;;;;;;;30.95;17.37;;;;;;;8.09;39.65;102600.85;2140213;82;20976;-85
2022/03/18 09:52:19;;;;;;;33.90;18.00;;;;;;;8.27;39.75;102596.73;2139742;80;21580;-84
2022/03/18 09:55:22;;;;;;;31.50;17.15;;;;;;;8.50;39.48;102598.91;2138764;82;20999;-83
2022/03/18 09:58:23;;;;;;;29.05;17.80;;;;;;;8.58;39.42;102597.09;2142944;82;21073;-85
2022/03/18 10:01:25;;;;;;;30.43;17.40;;;;;;;8.50;39.52;102594.94;2133961;82;21520;-84
2022/03/18 10:04:27;;;;;;;28.67;17.30;;;;;;;8.59;39.56;102609.84;2142804;81;21040;-84
2022/03/18 10:07:30;;;;;;;27.90;17.52;;;;;;;8.57;39.88;102609.11;2142070;82;21067;-84
2022/03/18 10:10:37;;;;;;;32.05;18.25;;;;;;;8.61;38.81;102607.48;2136650;82;21033;-83
2022/03/18 10:14:07;;;;;;;30.17;17.62;;;;;;;8.71;39.19;102615.73;2118258;82;21068;-83
2022/03/18 10:17:09;;;;;;;30.08;18.70;;;;;;;8.64;39.15;102615.23;2140537;82;20974;-84
2022/03/18 10:20:32;;;;;;;27.45;16.65;;;;;;;8.56;38.42;102616.65;2138983;82;21025;-84
2022/03/18 10:23:34;;;;;;;30.62;18.82;;;;;;;8.45;37.47;102622.14;2110871;82;20963;-84
2022/03/18 10:26:37;;;;;;;32.75;17.42;;;;;;;8.57;38.82;102622.34;2137480;81;21029;-84
2022/03/18 10:29:43;;;;;;;25.02;16.50;;;;;;;8.79;38.89;102624.06;2138945;80;22521;-84
2022/03/18 10:32:49;;;;;;;32.70;18.67;;;;;;;9.03;37.29;102631.42;2138443;80;21076;-84
2022/03/18 10:39:26;;;;;;;32.03;17.67;;;;;;;8.69;37.53;102621.59;2133345;81;21088;-86
2022/03/18 10:42:27;;;;;;;27.80;17.90;;;;;;;8.77;38.41;102627.27;2132751;80;21476;-84
2022/03/18 10:45:29;;;;;;;33.50;19.32;;;;;;;9.15;38.16;102621.38;2143930;80;21484;-84
2022/03/18 10:48:31;;;;;;;29.67;18.00;;;;;;;9.33;37.71;102620.23;2113596;82;20970;-84
2022/03/18 10:51:35;;;;;;;34.25;18.60;;;;;;;9.05;36.77;102621.12;2139435;80;21018;-84
2022/03/18 10:54:38;;;;;;;29.63;16.60;;;;;;;8.75;38.01;102619.88;2142985;82;21520;-84
2022/03/18 10:57:39;;;;;;;28.15;16.40;;;;;;;8.71;37.97;102625.84;2140996;81;21024;-84
2022/03/18 11:00:49;;;;;;;29.95;17.62;;;;;;;8.80;37.63;102634.17;2162270;81;21010;-84
2022/03/18 11:03:52;;;;;;;33.67;19.37;;;;;;;8.74;38.00;102624.81;2131384;81;21049;-84
2022/03/18 11:14:00;;;;;;;24.35;16.48;;;;;;;8.85;37.04;102626.33;2159524;81;21093;-83
2022/03/18 11:17:01;;;;;;;27.45;16.15;;;;;;;8.95;37.67;102630.56;2137264;80;21559;-84
2022/03/18 11:20:04;;;;;;;22.50;14.35;;;;;;;9.30;35.17;102623.08;2155883;81;21005;-83
2022/03/18 11:23:05;;;;;;;27.65;16.45;;;;;;;9.15;35.38;102630.65;2160454;81;21572;-83
2022/03/18 11:26:10;;;;;;;28.50;16.95;;;;;;;9.17;36.24;102629.61;2158788;80;20980;-83
2022/03/18 11:29:16;;;;;;;26.73;16.23;;;;;;;9.07;36.68;102627.66;2163658;81;21021;-83
2022/03/18 11:32:20;;;;;;;24.87;16.37;;;;;;;8.89;36.33;102627.83;2158547;81;21584;-83
2022/03/18 11:35:22;;;;;;;29.02;16.50;;;;;;;8.94;37.23;102633.70;2153331;81;21005;-83
2022/03/18 11:38:28;;;;;;;24.15;15.30;;;;;;;8.99;36.39;102629.45;2160161;80;21060;-83
2022/03/18 11:41:55;;;;;;;24.20;15.53;;;;;;;9.03;36.15;102630.10;2158033;81;20978;-83
2022/03/18 11:45:00;;;;;;;27.82;15.30;;;;;;;9.09;35.26;102636.34;2164819;80;21536;-83
2022/03/18 11:48:01;;;;;;;25.92;15.83;;;;;;;9.04;35.53;102619.43;2154491;81;21023;-83
2022/03/18 11:51:44;;;;;;;25.43;15.98;;;;;;;9.09;36.01;102631.88;2154393;81;21038;-84
2022/03/18 11:54:59;;;;;;;25.30;15.85;;;;;;;9.34;35.25;102625.89;2162696;80;20996;-83
2022/03/18 11:58:00;;;;;;;29.27;14.30;;;;;;;9.32;34.04;102634.44;2121523;81;21037;-83
2022/03/18 12:01:02;;;;;;;21.45;13.88;;;;;;;9.17;34.43;102638.03;2141863;80;20998;-83
2022/03/18 12:04:06;;;;;;;21.93;11.95;;;;;;;9.31;34.24;102630.06;2138346;82;21069;-83
2022/03/18 12:07:19;;;;;;;20.48;12.25;;;;;;;9.53;32.31;102630.88;2138666;82;21136;-83
2022/03/18 12:10:39;;;;;;;18.65;12.33;;;;;;;9.51;30.31;102623.48;2137721;82;21696;-83
2022/03/18 12:13:40;;;;;;;20.60;12.90;;;;;;;9.62;32.30;102632.08;2139295;81;21013;-82
2022/03/18 12:16:44;;;;;;;21.68;12.25;;;;;;;9.65;33.03;102622.59;2140039;81;20997;-83
2022/03/18 12:19:56;;;;;;;25.08;13.55;;;;;;;9.71;30.99;102627.50;2117886;82;21556;-84
2022/03/18 12:23:04;;;;;;;21.30;12.78;;;;;;;9.71;31.21;102629.30;2134713;82;21128;-83
2022/03/18 12:26:06;;;;;;;17.80;11.88;;;;;;;9.77;31.58;102635.08;2144964;82;21486;-83
2022/03/18 12:29:09;;;;;;;21.87;12.47;;;;;;;9.70;30.21;102628.46;2140178;82;20955;-83
2022/03/18 12:32:13;;;;;;;25.60;12.85;;;;;;;9.65;30.82;102621.27;2131339;82;21061;-83
2022/03/18 12:35:16;;;;;;;22.75;14.25;;;;;;;9.62;30.85;102625.45;2138395;82;21069;-83
2022/03/18 12:38:19;;;;;;;22.95;14.23;;;;;;;9.27;31.27;102626.41;2144858;80;21463;-83
2022/03/18 12:41:23;;;;;;;21.80;14.15;;;;;;;9.14;31.00;102623.19;2136776;82;21064;-83
2022/03/18 12:44:31;;;;;;;30.65;15.28;;;;;;;9.19;32.46;102630.37;2137325;80;20982;-84
2022/03/18 12:47:33;;;;;;;27.93;15.75;;;;;;;9.04;32.84;102632.67;2139063;80;21503;-83
2022/03/18 12:50:42;;;;;;;24.30;14.80;;;;;;;8.81;33.22;102638.03;2139441;82;21567;-83
2022/03/18 12:53:46;;;;;;;23.73;13.95;;;;;;;8.79;33.65;102639.95;2137715;82;21010;-84
2022/03/18 12:56:50;;;;;;;27.55;13.58;;;;;;;8.72;33.50;102631.98;2137415;81;21088;-83
2022/03/18 12:59:57;;;;;;;21.82;13.08;;;;;;;8.61;33.44;102638.41;2134218;82;21573;-83
2022/03/18 13:02:59;;;;;;;19.98;12.43;;;;;;;8.55;33.55;102634.80;2140994;82;21009;-84
2022/03/18 13:06:18;;;;;;;18.62;12.20;;;;;;;8.47;33.00;102633.45;2136769;80;21556;-83
2022/03/18 13:09:15;;;;;;;18.52;11.55;;;;;;;8.48;33.22;102632.53;2132182;81;21031;-83
2022/03/18 13:12:34;;;;;;;17.37;11.20;;;;;;;8.52;32.95;102628.75;2139819;82;21027;-83
2022/03/18 13:15:38;;;;;;;17.77;10.48;;;;;;;8.61;31.75;102623.84;2137626;80;21022;-83
2022/03/18 13:18:48;;;;;;;17.15;10.55;;;;;;;8.50;31.98;102628.01;2136546;82;20978;-83
2022/03/18 13:21:50;;;;;;;18.80;9.33;;;;;;;8.50;31.67;102622.72;2135671;82;20997;-83
2022/03/18 13:24:55;;;;;;;17.12;10.50;;;;;;;8.44;31.50;102626.19;2138552;81;21541;-84
2022/03/18 13:27:57;;;;;;;16.77;9.95;;;;;;;8.40;31.21;102632.14;2138627;80;21016;-83
2022/03/18 13:34:32;;;;;;;16.93;9.50;;;;;;;8.35;30.85;102636.81;2137451;80;21121;-83
2022/03/18 13:37:34;;;;;;;14.33;8.40;;;;;;;8.31;30.04;102649.86;2137820;80;21435;-85
2022/03/18 13:40:38;;;;;;;15.00;8.28;;;;;;;8.30;28.78;102638.39;2136107;82;21529;-85
2022/03/18 13:43:40;;;;;;;15.60;8.85;;;;;;;8.24;28.39;102641.88;2137119;82;21003;-84
2022/03/18 13:46:42;;;;;;;18.02;8.80;;;;;;;8.26;29.24;102645.30;2142330;82;21013;-84
2022/03/18 13:50:01;;;;;;;17.82;9.28;;;;;;;8.21;29.55;102638.95;2134215;81;21023;-84
2022/03/18 13:53:19;;;;;;;16.12;9.08;;;;;;;8.17;29.28;102644.05;2137237;81;21026;-84
2022/03/18 13:56:22;;;;;;;15.32;7.80;;;;;;;8.16;29.64;102635.71;2140902;82;20989;-83
2022/03/18 13:59:26;;;;;;;15.63;9.53;;;;;;;8.25;28.42;102635.20;2143723;81;21025;-83
2022/03/18 14:02:31;;;;;;;16.45;8.25;;;;;;;8.28;28.85;102635.02;2147025;81;21013;-84
2022/03/18 14:05:35;;;;;;;14.95;8.88;;;;;;;8.23;29.38;102636.22;2135115;81;21033;-83
2022/03/18 14:08:41;;;;;;;12.60;8.20;;;;;;;8.21;28.21;102634.13;2142697;81;21017;-84
2022/03/18 14:15:16;;;;;;;14.78;8.23;;;;;;;8.03;27.96;102632.95;2146687;81;21000;-83
2022/03/18 14:18:18;;;;;;;13.93;9.20;;;;;;;8.02;28.28;102639.16;2138676;81;21019;-84
2022/03/18 14:21:20;;;;;;;14.43;8.55;;;;;;;8.05;29.24;102641.66;2141097;81;20994;-84
2022/03/18 14:24:22;;;;;;;14.23;8.70;;;;;;;8.09;29.24;102636.55;2142846;81;20982;-84
2022/03/18 14:27:24;;;;;;;15.05;9.95;;;;;;;8.11;28.54;102637.80;2145597;81;21052;-84
2022/03/18 14:30:27;;;;;;;17.40;8.73;;;;;;;8.07;28.99;102628.33;2148354;80;21042;-85
2022/03/18 14:33:30;;;;;;;20.25;10.55;;;;;;;8.08;29.07;102631.34;2152090;81;21469;-84
2022/03/18 14:36:33;;;;;;;16.12;9.05;;;;;;;8.09;29.38;102636.55;2145383;81;21098;-83
2022/03/18 14:39:35;;;;;;;15.10;8.93;;;;;;;8.10;29.04;102642.69;2145681;81;20991;-84
2022/03/18 14:42:39;;;;;;;15.35;9.05;;;;;;;8.13;29.36;102646.95;2136959;81;21266;-84
2022/03/18 14:45:41;;;;;;;15.28;8.10;;;;;;;8.09;29.19;102640.99;2144133;81;21017;-84